createdAt,value
2017-12-13T00:00:47.975Z,21.2
2017-12-13T00:01:49.874Z,21.1
2017-12-13T00:02:51.790Z,21.1
2017-12-13T00:03:52.841Z,21.1
2017-12-13T00:04:54.438Z,21.1
2017-12-13T00:05:56.056Z,21.1
2017-12-13T00:06:57.653Z,21.1
2017-12-13T00:07:58.994Z,21.1
2017-12-13T00:09:00.890Z,21.1
2017-12-13T00:10:02.506Z,21
2017-12-13T00:11:03.827Z,21.1
2017-12-13T00:12:05.171Z,21.2
2017-12-13T00:13:07.066Z,21.2
2017-12-13T00:14:08.686Z,21.1
2017-12-13T00:15:10.034Z,21.1
2017-12-13T00:16:11.930Z,21.1
2017-12-13T00:17:13.527Z,21.1
2017-12-13T00:18:14.852Z,21.1
2017-12-13T00:19:15.916Z,21.1
2017-12-13T00:20:17.532Z,21.1
2017-12-13T00:21:18.862Z,21.1
2017-12-13T00:22:20.765Z,21
2017-12-13T00:23:22.661Z,21.1
2017-12-13T00:24:24.559Z,21.1
2017-12-13T00:25:26.176Z,21.2
2017-12-13T00:26:28.071Z,21.1
2017-12-13T00:27:29.968Z,21.2
2017-12-13T00:28:31.862Z,21
2017-12-13T00:29:33.480Z,21.1
2017-12-13T00:30:35.120Z,21.1
2017-12-13T00:31:36.740Z,21.2
2017-12-13T00:32:38.349Z,21.1
2017-12-13T00:33:40.248Z,21.1
2017-12-13T00:34:42.147Z,21.1
2017-12-13T00:35:43.773Z,21.1
2017-12-13T00:36:45.388Z,21.1
2017-12-13T00:37:47.285Z,21.2
2017-12-13T00:38:49.181Z,21.1
2017-12-13T00:39:50.523Z,21.1
2017-12-13T00:40:52.152Z,21.1
2017-12-13T00:41:54.052Z,21.1
2017-12-13T00:42:55.644Z,21.1
2017-12-13T00:43:57.541Z,21.1
2017-12-13T00:44:59.162Z,21.1
2017-12-13T00:46:00.506Z,21.1
2017-12-13T00:47:02.126Z,21.1
2017-12-13T00:48:04.019Z,21.1
2017-12-13T00:49:04.784Z,21.1
2017-12-13T00:50:06.681Z,21.1
2017-12-13T00:51:08.298Z,21.1
2017-12-13T00:52:09.620Z,21.1
2017-12-13T00:53:11.518Z,21.1
2017-12-13T00:54:13.116Z,21.1
2017-12-13T00:55:15.015Z,21.1
2017-12-13T00:56:16.665Z,21.1
2017-12-13T00:57:18.551Z,21.1
2017-12-13T00:58:20.167Z,21.1
2017-12-13T00:59:21.802Z,21.1
2017-12-13T01:00:23.421Z,21.1
2017-12-13T01:01:24.743Z,21.1
2017-12-13T01:02:26.403Z,21.2
2017-12-13T01:03:28.003Z,21.1
2017-12-13T01:04:29.898Z,21.1
2017-12-13T01:05:31.239Z,21.1
2017-12-13T01:06:32.280Z,21.1
2017-12-13T01:07:33.622Z,21.1
2017-12-13T01:08:35.238Z,21.1
2017-12-13T01:09:36.837Z,21.1
2017-12-13T01:10:38.732Z,21.1
2017-12-13T01:11:40.629Z,21.1
2017-12-13T01:12:41.672Z,21.1
2017-12-13T01:13:42.995Z,21.1
2017-12-13T01:14:44.615Z,21.1
2017-12-13T01:15:46.507Z,21.1
2017-12-13T01:16:48.126Z,21.1
2017-12-13T01:17:49.743Z,21.1
2017-12-13T01:18:51.637Z,21.1
2017-12-13T01:19:53.534Z,21.1
2017-12-13T01:20:55.183Z,21.1
2017-12-13T01:21:56.804Z,21.1
2017-12-13T01:22:58.699Z,21.1
2017-12-13T01:24:00.046Z,21.1
2017-12-13T01:25:01.941Z,21.1
2017-12-13T01:26:03.840Z,21
2017-12-13T01:27:05.455Z,21
2017-12-13T01:28:07.076Z,21.1
2017-12-13T01:29:08.703Z,21
2017-12-13T01:30:10.296Z,21.1
2017-12-13T01:31:11.915Z,21.1
2017-12-13T01:32:13.543Z,21.1
2017-12-13T01:33:15.160Z,21.1
2017-12-13T01:34:16.779Z,21
2017-12-13T01:35:18.672Z,21.1
2017-12-13T01:36:20.015Z,21
2017-12-13T01:37:21.910Z,21
2017-12-13T01:38:23.251Z,21.1
2017-12-13T01:39:24.870Z,21.1
2017-12-13T01:40:26.486Z,21.1
2017-12-13T01:41:28.106Z,21.1
2017-12-13T01:42:29.446Z,21.1
2017-12-13T01:43:30.767Z,21
2017-12-13T01:44:32.105Z,21.1
2017-12-13T01:45:33.424Z,21.1
2017-12-13T01:46:35.318Z,21.1
2017-12-13T01:47:36.917Z,21
2017-12-13T01:48:38.863Z,21
2017-12-13T01:49:40.515Z,21
2017-12-13T01:50:41.277Z,21
2017-12-13T01:51:42.896Z,21
2017-12-13T01:52:44.218Z,21
2017-12-13T01:53:45.579Z,21
2017-12-13T01:54:47.554Z,21
2017-12-13T01:55:49.172Z,21
2017-12-13T01:56:51.065Z,21
2017-12-13T01:57:52.682Z,21
2017-12-13T01:58:54.301Z,21
2017-12-13T01:59:55.898Z,21
2017-12-13T02:00:57.516Z,21
2017-12-13T02:01:59.158Z,21
2017-12-13T02:03:01.052Z,21
2017-12-13T02:04:02.947Z,21.1
2017-12-13T02:05:04.273Z,21
2017-12-13T02:07:39.362Z,21
2017-12-13T02:08:40.980Z,21
2017-12-13T02:09:42.595Z,21
2017-12-13T02:10:43.913Z,21
2017-12-13T02:11:45.855Z,21
2017-12-13T02:12:47.752Z,21
2017-12-13T02:13:49.351Z,21
2017-12-13T02:14:50.970Z,21
2017-12-13T02:15:52.294Z,21.1
2017-12-13T02:16:54.192Z,21
2017-12-13T02:17:55.787Z,21
2017-12-13T02:18:57.404Z,21.1
2017-12-13T02:19:59.300Z,21.1
2017-12-13T02:21:00.920Z,21
2017-12-13T02:22:02.811Z,21
2017-12-13T02:24:08.367Z,21
2017-12-13T02:25:10.263Z,21
2017-12-13T02:26:11.898Z,20.9
2017-12-13T02:27:13.519Z,21.1
2017-12-13T02:28:15.138Z,21
2017-12-13T02:29:16.745Z,21
2017-12-13T02:30:18.350Z,21
2017-12-13T02:31:20.244Z,21
2017-12-13T02:32:21.841Z,21
2017-12-13T02:33:23.466Z,21
2017-12-13T02:34:25.084Z,21
2017-12-13T02:35:26.701Z,21
2017-12-13T02:36:28.318Z,21
2017-12-13T02:37:30.213Z,21
2017-12-13T02:38:31.817Z,21
2017-12-13T02:39:33.154Z,21
2017-12-13T02:40:34.772Z,21
2017-12-13T02:41:36.113Z,20.9
2017-12-13T02:42:37.173Z,21
2017-12-13T02:43:38.792Z,21
2017-12-13T02:44:40.131Z,21
2017-12-13T02:45:42.027Z,20.9
2017-12-13T02:46:43.662Z,21
2017-12-13T02:47:45.282Z,20.9
2017-12-13T02:48:46.899Z,20.9
2017-12-13T02:49:48.794Z,20.9
2017-12-13T02:50:50.411Z,20.9
2017-12-13T02:51:51.751Z,20.9
2017-12-13T02:52:53.092Z,20.9
2017-12-13T02:53:54.137Z,20.9
2017-12-13T02:54:56.029Z,20.9
2017-12-13T02:55:57.923Z,20.9
2017-12-13T02:56:59.539Z,21
2017-12-13T02:58:00.860Z,21
2017-12-13T02:59:02.487Z,21
2017-12-13T03:00:03.828Z,21
2017-12-13T03:01:05.723Z,20.9
2017-12-13T03:02:07.344Z,20.9
2017-12-13T03:03:08.684Z,21
2017-12-13T03:04:10.584Z,20.9
2017-12-13T03:05:12.197Z,20.9
2017-12-13T03:06:13.814Z,20.9
2017-12-13T03:07:15.134Z,21
2017-12-13T03:08:16.757Z,21
2017-12-13T03:09:18.658Z,20.9
2017-12-13T03:10:20.291Z,20.9
2017-12-13T03:11:22.187Z,20.9
2017-12-13T03:12:24.080Z,20.9
2017-12-13T03:13:25.975Z,20.9
2017-12-13T03:14:27.591Z,20.9
2017-12-13T03:15:29.488Z,21
2017-12-13T03:16:30.549Z,20.9
2017-12-13T03:17:32.174Z,20.9
2017-12-13T03:18:33.490Z,20.9
2017-12-13T03:19:34.829Z,20.9
2017-12-13T03:20:36.725Z,20.9
2017-12-13T03:21:38.344Z,21
2017-12-13T03:22:39.684Z,20.9
2017-12-13T03:23:41.596Z,20.9
2017-12-13T03:24:43.214Z,20.9
2017-12-13T03:25:44.555Z,21
2017-12-13T03:26:45.896Z,21
2017-12-13T03:27:47.791Z,21
2017-12-13T03:28:49.130Z,20.9
2017-12-13T03:29:50.728Z,21
2017-12-13T03:30:52.627Z,21
2017-12-13T03:31:54.245Z,21
2017-12-13T03:32:56.145Z,20.9
2017-12-13T03:33:57.528Z,20.9
2017-12-13T03:34:59.124Z,20.9
2017-12-13T03:36:00.446Z,20.9
2017-12-13T03:37:01.490Z,21
2017-12-13T03:38:03.088Z,20.9
2017-12-13T03:39:04.713Z,21
2017-12-13T03:40:06.328Z,20.9
2017-12-13T03:41:07.646Z,20.9
2017-12-13T03:42:09.264Z,20.9
2017-12-13T03:43:10.616Z,21
2017-12-13T03:44:12.519Z,21
2017-12-13T03:45:13.859Z,20.9
2017-12-13T03:46:15.177Z,21
2017-12-13T03:47:16.797Z,21
2017-12-13T03:48:18.690Z,21
2017-12-13T03:49:20.320Z,20.9
2017-12-13T03:50:22.226Z,20.9
2017-12-13T03:51:23.552Z,21
2017-12-13T03:52:24.890Z,20.9
2017-12-13T03:53:26.232Z,20.9
2017-12-13T03:54:27.829Z,20.9
2017-12-13T03:55:29.446Z,21
2017-12-13T03:56:31.340Z,20.9
2017-12-13T03:57:33.242Z,21
2017-12-13T03:58:35.134Z,20.9
2017-12-13T03:59:37.027Z,20.9
2017-12-13T04:00:38.923Z,20.9
2017-12-13T04:01:40.843Z,20.9
2017-12-13T04:02:42.461Z,21
2017-12-13T04:03:43.803Z,21
2017-12-13T04:04:45.423Z,20.9
2017-12-13T04:05:47.320Z,20.9
2017-12-13T04:06:49.215Z,21
2017-12-13T04:07:50.559Z,21
2017-12-13T04:08:52.455Z,21
2017-12-13T04:09:53.796Z,20.9
2017-12-13T04:10:55.690Z,21
2017-12-13T04:11:57.583Z,20.9
2017-12-13T04:12:59.478Z,20.9
2017-12-13T04:14:01.373Z,20.9
2017-12-13T04:15:03.269Z,20.9
2017-12-13T04:16:04.315Z,21
2017-12-13T04:17:06.222Z,21
2017-12-13T04:18:07.827Z,21
2017-12-13T04:19:09.167Z,20.9
2017-12-13T04:20:10.506Z,20.9
2017-12-13T04:21:12.402Z,20.9
2017-12-13T04:22:14.021Z,20.9
2017-12-13T04:23:15.650Z,21
2017-12-13T04:24:17.545Z,20.9
2017-12-13T04:25:19.441Z,21
2017-12-13T04:26:21.336Z,20.9
2017-12-13T04:27:22.935Z,20.9
2017-12-13T04:28:24.830Z,20.9
2017-12-13T04:29:26.426Z,20.9
2017-12-13T04:30:28.338Z,20.9
2017-12-13T04:31:30.232Z,21
2017-12-13T04:32:31.849Z,21
2017-12-13T04:33:33.747Z,20.9
2017-12-13T04:34:35.656Z,21
2017-12-13T04:35:36.994Z,20.9
2017-12-13T04:36:38.587Z,20.9
2017-12-13T04:37:40.482Z,20.9
2017-12-13T04:38:42.102Z,20.9
2017-12-13T04:39:43.999Z,20.9
2017-12-13T04:40:45.624Z,20.9
2017-12-13T04:41:47.521Z,20.9
2017-12-13T04:42:49.418Z,20.9
2017-12-13T04:43:51.315Z,20.9
2017-12-13T04:44:52.659Z,20.9
2017-12-13T04:45:54.276Z,20.9
2017-12-13T04:46:56.171Z,20.9
2017-12-13T04:47:57.507Z,20.9
2017-12-13T04:48:59.136Z,20.9
2017-12-13T04:50:00.759Z,21
2017-12-13T04:51:02.079Z,20.9
2017-12-13T04:52:03.975Z,20.9
2017-12-13T04:53:05.593Z,20.9
2017-12-13T04:54:07.526Z,20.8
2017-12-13T04:55:09.143Z,20.9
2017-12-13T04:56:10.762Z,20.8
2017-12-13T04:57:12.105Z,20.9
2017-12-13T04:58:14.001Z,20.9
2017-12-13T04:59:15.619Z,20.9
2017-12-13T05:00:17.533Z,20.9
2017-12-13T05:01:19.129Z,20.9
2017-12-13T05:02:20.746Z,20.8
2017-12-13T05:03:22.644Z,20.9
2017-12-13T05:04:24.543Z,20.9
2017-12-13T05:05:25.884Z,20.8
2017-12-13T05:06:27.208Z,20.9
2017-12-13T05:07:28.250Z,21
2017-12-13T05:08:30.149Z,20.9
2017-12-13T05:09:31.766Z,20.9
2017-12-13T05:10:32.809Z,21
2017-12-13T05:11:34.429Z,20.9
2017-12-13T05:12:36.326Z,20.9
2017-12-13T05:13:38.221Z,20.9
2017-12-13T05:14:39.606Z,20.9
2017-12-13T05:15:40.938Z,20.9
2017-12-13T05:16:42.539Z,21
2017-12-13T05:17:44.163Z,20.9
2017-12-13T05:18:45.768Z,20.9
2017-12-13T05:19:47.665Z,20.9
2017-12-13T05:20:49.004Z,20.9
2017-12-13T05:21:50.899Z,20.8
2017-12-13T05:22:52.792Z,20.8
2017-12-13T05:23:54.409Z,20.8
2017-12-13T05:24:56.301Z,20.9
2017-12-13T05:25:58.210Z,20.9
2017-12-13T05:26:59.519Z,20.9
2017-12-13T05:28:00.860Z,20.8
2017-12-13T05:29:02.479Z,20.9
2017-12-13T05:30:04.095Z,20.8
2017-12-13T05:31:05.994Z,20.9
2017-12-13T05:32:07.890Z,20.8
2017-12-13T05:33:09.786Z,20.8
2017-12-13T05:34:10.855Z,20.8
2017-12-13T05:35:12.192Z,20.8
2017-12-13T05:36:14.088Z,20.8
2017-12-13T05:37:15.985Z,20.8
2017-12-13T05:38:17.879Z,20.8
2017-12-13T05:39:19.498Z,20.8
2017-12-13T05:40:21.402Z,20.9
2017-12-13T05:41:23.016Z,20.9
2017-12-13T05:42:24.335Z,20.9
2017-12-13T05:43:26.232Z,20.8
2017-12-13T05:44:27.824Z,20.9
2017-12-13T05:45:29.719Z,20.9
2017-12-13T05:46:31.635Z,20.8
2017-12-13T05:47:33.533Z,20.8
2017-12-13T05:48:34.846Z,20.8
2017-12-13T05:49:36.466Z,20.9
2017-12-13T05:50:38.061Z,20.9
2017-12-13T05:51:39.679Z,20.9
2017-12-13T05:52:41.574Z,20.8
2017-12-13T05:53:43.195Z,20.9
2017-12-13T05:54:44.790Z,20.8
2017-12-13T05:55:46.697Z,20.8
2017-12-13T05:56:48.291Z,20.8
2017-12-13T05:57:49.911Z,20.8
2017-12-13T05:58:51.231Z,20.8
2017-12-13T05:59:52.849Z,20.8
2017-12-13T06:00:54.464Z,20.8
2017-12-13T06:01:56.088Z,20.9
2017-12-13T06:02:57.980Z,20.9
2017-12-13T06:03:59.598Z,20.8
2017-12-13T06:05:00.940Z,20.8
2017-12-13T06:06:02.561Z,20.8
2017-12-13T06:07:04.179Z,20.9
2017-12-13T06:08:06.074Z,20.8
2017-12-13T06:09:07.692Z,20.9
2017-12-13T06:10:09.587Z,20.8
2017-12-13T06:11:11.484Z,20.8
2017-12-13T06:12:13.101Z,20.8
2017-12-13T06:13:14.995Z,20.8
2017-12-13T06:14:16.335Z,20.8
2017-12-13T06:15:18.233Z,20.8
2017-12-13T06:16:19.852Z,20.8
2017-12-13T06:17:21.191Z,20.9
2017-12-13T06:18:22.859Z,20.8
2017-12-13T06:19:24.754Z,20.8
2017-12-13T06:20:26.374Z,20.8
2017-12-13T06:21:27.993Z,20.8
2017-12-13T06:22:29.887Z,20.8
2017-12-13T06:23:31.506Z,20.8
2017-12-13T06:24:32.846Z,20.8
2017-12-13T06:25:34.441Z,20.8
2017-12-13T06:26:36.062Z,20.8
2017-12-13T06:27:37.379Z,20.8
2017-12-13T06:28:39.000Z,20.8
2017-12-13T06:29:40.616Z,20.8
2017-12-13T06:30:42.264Z,20.8
2017-12-13T06:31:43.885Z,20.8
2017-12-13T06:32:44.927Z,20.7
2017-12-13T06:33:46.270Z,20.8
2017-12-13T06:34:48.166Z,20.9
2017-12-13T06:35:49.801Z,20.8
2017-12-13T06:36:51.141Z,20.9
2017-12-13T06:37:52.486Z,20.8
2017-12-13T06:38:53.803Z,20.8
2017-12-13T06:39:55.419Z,20.8
2017-12-13T06:40:57.048Z,20.8
2017-12-13T06:41:58.668Z,20.8
2017-12-13T06:43:00.289Z,20.8
2017-12-13T06:44:01.907Z,20.8
2017-12-13T06:45:03.806Z,20.7
2017-12-13T06:46:05.730Z,20.8
2017-12-13T06:47:07.351Z,20.8
2017-12-13T06:48:08.692Z,20.8
2017-12-13T06:49:10.033Z,20.8
2017-12-13T06:50:11.351Z,20.8
2017-12-13T06:51:13.247Z,20.8
2017-12-13T06:52:14.590Z,20.8
2017-12-13T06:53:15.908Z,20.8
2017-12-13T06:54:17.536Z,20.8
2017-12-13T06:55:19.431Z,20.8
2017-12-13T06:56:21.328Z,20.8
2017-12-13T06:57:22.946Z,20.9
2017-12-13T06:58:24.605Z,20.9
2017-12-13T06:59:26.502Z,20.9
2017-12-13T07:00:28.103Z,20.9
2017-12-13T07:01:29.723Z,20.9
2017-12-13T07:02:30.765Z,21
2017-12-13T07:03:32.665Z,21
2017-12-13T07:04:33.436Z,20.9
2017-12-13T07:05:35.059Z,20.9
2017-12-13T07:06:36.662Z,20.9
2017-12-13T07:07:38.508Z,20.9
2017-12-13T07:08:40.141Z,21
2017-12-13T07:09:42.039Z,20.9
2017-12-13T07:10:44.110Z,20.9
2017-12-13T07:11:46.010Z,21
2017-12-13T07:12:47.639Z,21
2017-12-13T07:13:49.244Z,21
2017-12-13T07:14:51.142Z,21
2017-12-13T07:15:52.625Z,21.1
2017-12-13T07:16:54.520Z,21.1
2017-12-13T07:17:56.182Z,21.1
2017-12-13T07:18:58.080Z,21.1
2017-12-13T07:19:59.705Z,21.1
2017-12-13T07:21:00.756Z,21.1
2017-12-13T07:22:02.382Z,21.1
2017-12-13T07:23:04.276Z,21.1
2017-12-13T07:24:05.901Z,21.2
2017-12-13T07:25:07.806Z,21.1
2017-12-13T07:26:09.712Z,21.2
2017-12-13T07:27:11.127Z,21.2
2017-12-13T07:28:13.025Z,21.2
2017-12-13T07:29:14.926Z,21
2017-12-13T07:30:16.270Z,21.1
2017-12-13T07:31:18.174Z,21.2
2017-12-13T07:32:19.496Z,21.2
2017-12-13T07:33:21.395Z,21.2
2017-12-13T07:34:23.295Z,21.2
2017-12-13T07:35:24.900Z,21.1
2017-12-13T07:36:26.503Z,21.1
2017-12-13T07:37:28.126Z,21.1
2017-12-13T07:38:29.470Z,21.2
2017-12-13T07:39:31.093Z,21.1
2017-12-13T07:40:32.997Z,21.1
2017-12-13T07:41:34.599Z,21.1
2017-12-13T07:42:36.499Z,21
2017-12-13T07:43:38.120Z,21.1
2017-12-13T07:44:39.742Z,21.1
2017-12-13T07:45:41.364Z,21
2017-12-13T07:46:43.265Z,21.1
2017-12-13T07:47:44.885Z,21.1
2017-12-13T07:48:46.558Z,21.2
2017-12-13T07:49:48.182Z,21
2017-12-13T07:50:49.802Z,21.1
2017-12-13T07:51:51.123Z,21.1
2017-12-13T07:52:52.471Z,21.3
2017-12-13T07:53:53.813Z,21.1
2017-12-13T07:54:55.158Z,21.1
2017-12-13T07:55:56.786Z,21.2
2017-12-13T07:56:58.684Z,21.1
2017-12-13T07:58:00.007Z,21.1
2017-12-13T07:59:01.914Z,21.1
2017-12-13T08:00:03.815Z,21.2
2017-12-13T08:01:05.445Z,21.1
2017-12-13T08:02:07.061Z,21.1
2017-12-13T08:03:08.961Z,21.1
2017-12-13T08:04:10.587Z,21.2
2017-12-13T08:05:12.187Z,21
2017-12-13T08:06:13.808Z,21.1
2017-12-13T08:07:15.709Z,21.1
2017-12-13T08:08:17.053Z,21.1
2017-12-13T08:09:18.675Z,21.1
2017-12-13T08:10:20.619Z,21.1
2017-12-13T08:11:22.520Z,21.1
2017-12-13T08:12:24.414Z,21.1
2017-12-13T08:13:26.311Z,21.1
2017-12-13T08:14:27.931Z,21
2017-12-13T08:15:29.253Z,21.2
2017-12-13T08:16:30.604Z,21.1
2017-12-13T08:17:32.220Z,21.1
2017-12-13T08:18:33.841Z,21.1
2017-12-13T08:19:35.464Z,21.1
2017-12-13T08:20:37.364Z,21.1
2017-12-13T08:21:38.686Z,21.1
2017-12-13T08:22:40.303Z,21.1
2017-12-13T08:23:41.625Z,21.1
2017-12-13T08:24:43.244Z,21.1
2017-12-13T08:25:45.143Z,21.1
2017-12-13T08:26:46.191Z,21.1
2017-12-13T08:27:47.815Z,21.1
2017-12-13T08:28:49.160Z,21.1
2017-12-13T08:29:50.783Z,21
2017-12-13T08:30:52.385Z,21.1
2017-12-13T08:31:54.283Z,21.1
2017-12-13T08:32:55.910Z,21.2
2017-12-13T08:33:57.811Z,21.2
2017-12-13T08:34:59.441Z,21.1
2017-12-13T08:36:01.107Z,21.1
2017-12-13T08:37:02.718Z,21.1
2017-12-13T08:38:04.064Z,21.2
2017-12-13T08:39:05.665Z,21.2
2017-12-13T08:40:07.304Z,21.1
2017-12-13T08:41:08.644Z,21.1
2017-12-13T08:42:10.268Z,21.1
2017-12-13T08:43:11.895Z,21.1
2017-12-13T08:44:13.583Z,21.1
2017-12-13T08:45:15.445Z,21.2
2017-12-13T08:46:17.276Z,21.1
2017-12-13T08:47:19.229Z,21.1
2017-12-13T08:48:21.347Z,21.2
2017-12-13T08:49:23.783Z,21.1
2017-12-13T08:50:25.397Z,21.1
2017-12-13T08:51:27.299Z,21.2
2017-12-13T08:52:28.921Z,21.1
2017-12-13T08:53:30.832Z,21.2
2017-12-13T08:54:32.463Z,21.2
2017-12-13T08:55:33.778Z,21.1
2017-12-13T08:56:35.679Z,21.2
2017-12-13T08:57:37.314Z,21.1
2017-12-13T08:58:39.285Z,21.1
2017-12-13T08:59:41.236Z,21.1
2017-12-13T09:00:43.136Z,21.1
2017-12-13T09:01:44.486Z,21.2
2017-12-13T09:02:45.810Z,21.1
2017-12-13T09:03:47.135Z,21.1
2017-12-13T09:04:48.810Z,21.1
2017-12-13T09:05:50.151Z,21.2
2017-12-13T09:06:51.770Z,21.3
2017-12-13T09:07:53.099Z,21.2
2017-12-13T09:08:54.806Z,21.2
2017-12-13T09:09:56.432Z,21.2
2017-12-13T09:10:58.329Z,21.2
2017-12-13T09:12:00.231Z,21.2
2017-12-13T09:13:01.280Z,21.2
2017-12-13T09:14:03.179Z,21.2
2017-12-13T09:15:05.121Z,21.2
2017-12-13T09:16:07.837Z,21.2
2017-12-13T09:17:09.734Z,21.2
2017-12-13T09:18:11.634Z,21.2
2017-12-13T09:19:13.239Z,21.2
2017-12-13T09:20:15.142Z,21.2
2017-12-13T09:21:17.038Z,21.2
2017-12-13T09:22:18.664Z,21.3
2017-12-13T09:23:19.989Z,21.2
2017-12-13T09:24:21.886Z,21.2
2017-12-13T09:25:23.488Z,21.2
2017-12-13T09:26:25.085Z,21.2
2017-12-13T09:27:26.433Z,21.2
2017-12-13T09:28:28.055Z,21.2
2017-12-13T09:29:29.955Z,21.2
2017-12-13T09:30:31.590Z,21.3
2017-12-13T09:31:32.944Z,21.2
2017-12-13T09:32:34.860Z,21.3
2017-12-13T09:33:36.842Z,21.2
2017-12-13T09:34:38.468Z,21.2
2017-12-13T09:35:39.820Z,21.3
2017-12-13T09:36:41.452Z,21.3
2017-12-13T09:37:42.799Z,21.4
2017-12-13T09:38:44.421Z,21.3
2017-12-13T09:39:46.323Z,21.3
2017-12-13T09:40:47.928Z,21.3
2017-12-13T09:41:49.832Z,21.4
2017-12-13T09:42:51.461Z,21.3
2017-12-13T09:43:53.362Z,21.3
2017-12-13T09:44:54.708Z,21.3
2017-12-13T09:45:56.331Z,21.4
2017-12-13T09:46:57.974Z,21.4
2017-12-13T09:47:59.307Z,21.4
2017-12-13T09:49:00.932Z,21.3
2017-12-13T09:50:02.284Z,21.4
2017-12-13T09:51:03.604Z,21.4
2017-12-13T09:52:05.232Z,21.4
2017-12-13T09:53:06.583Z,21.4
2017-12-13T09:54:07.346Z,21.4
2017-12-13T09:55:08.974Z,21.4
2017-12-13T09:56:10.298Z,21.4
2017-12-13T09:57:11.918Z,21.4
2017-12-13T09:58:13.243Z,21.4
2017-12-13T09:59:15.144Z,21.4
2017-12-13T10:00:16.207Z,21.5
2017-12-13T10:01:17.553Z,21.4
2017-12-13T10:02:18.602Z,21.5
2017-12-13T10:03:20.202Z,21.4
2017-12-13T10:04:21.546Z,21.4
2017-12-13T10:05:23.451Z,21.5
2017-12-13T10:06:25.050Z,21.5
2017-12-13T10:07:26.394Z,21.4
2017-12-13T10:08:28.292Z,21.4
2017-12-13T10:09:29.912Z,21.4
2017-12-13T10:10:31.257Z,21.5
2017-12-13T10:11:33.155Z,21.4
2017-12-13T10:12:35.057Z,21.5
2017-12-13T10:13:36.384Z,21.4
2017-12-13T10:14:37.435Z,21.4
2017-12-13T10:15:39.333Z,21.4
2017-12-13T10:16:40.682Z,21.4
2017-12-13T10:17:42.582Z,21.4
2017-12-13T10:18:44.484Z,21.4
2017-12-13T10:19:46.387Z,21.4
2017-12-13T10:20:48.283Z,21.4
2017-12-13T10:21:49.880Z,21.4
2017-12-13T10:22:51.501Z,21.4
2017-12-13T10:23:53.101Z,21.4
2017-12-13T10:24:54.808Z,21.4
2017-12-13T10:25:56.711Z,21.5
2017-12-13T10:26:58.619Z,21.4
2017-12-13T10:27:59.682Z,21.4
2017-12-13T10:29:00.732Z,21.5
2017-12-13T10:30:01.507Z,21.5
2017-12-13T10:31:03.127Z,21.5
2017-12-13T10:32:04.752Z,21.4
2017-12-13T10:33:06.380Z,21.4
2017-12-13T10:34:08.276Z,21.4
2017-12-13T10:35:09.598Z,21.4
2017-12-13T10:36:11.200Z,21.4
2017-12-13T10:37:13.098Z,21.4
2017-12-13T10:38:14.721Z,21.4
2017-12-13T10:39:16.617Z,21.4
2017-12-13T10:40:17.663Z,21.4
2017-12-13T10:41:19.282Z,21.4
2017-12-13T10:42:20.905Z,21.4
2017-12-13T10:43:22.538Z,21.5
2017-12-13T10:44:24.217Z,21.4
2017-12-13T10:45:24.985Z,21.4
2017-12-13T10:46:26.611Z,21.4
2017-12-13T10:47:28.233Z,21.4
2017-12-13T10:48:29.559Z,21.4
2017-12-13T10:49:31.166Z,21.5
2017-12-13T10:50:32.786Z,21.4
2017-12-13T10:51:34.687Z,21.4
2017-12-13T10:52:36.290Z,21.4
2017-12-13T10:53:37.936Z,21.4
2017-12-13T10:54:39.833Z,21.4
2017-12-13T10:55:41.178Z,21.4
2017-12-13T10:56:42.805Z,21.4
2017-12-13T10:57:44.153Z,21.4
2017-12-13T10:58:46.055Z,21.4
2017-12-13T10:59:47.680Z,21.5
2017-12-13T11:00:49.280Z,21.4
2017-12-13T11:01:51.179Z,21.4
2017-12-13T11:02:52.524Z,21.4
2017-12-13T11:03:53.568Z,21.4
2017-12-13T11:04:55.179Z,21.4
2017-12-13T11:05:57.083Z,21.4
2017-12-13T11:06:58.699Z,21.4
2017-12-13T11:08:00.602Z,21.4
2017-12-13T11:09:02.220Z,21.5
2017-12-13T11:10:03.842Z,21.4
2017-12-13T11:11:05.167Z,21.5
2017-12-13T11:12:06.523Z,21.4
2017-12-13T11:13:08.441Z,21.4
2017-12-13T11:14:10.068Z,21.4
2017-12-13T11:15:11.410Z,21.4
2017-12-13T11:16:12.745Z,21.4
2017-12-13T11:17:14.375Z,21.4
2017-12-13T11:18:16.009Z,21.4
2017-12-13T11:19:17.915Z,21.4
2017-12-13T11:20:19.542Z,21.4
2017-12-13T11:21:21.169Z,21.4
2017-12-13T11:22:22.506Z,21.4
2017-12-13T11:23:24.404Z,21.5
2017-12-13T11:24:26.031Z,21.4
2017-12-13T11:25:27.653Z,21.4
2017-12-13T11:26:29.602Z,21.5
2017-12-13T11:27:30.943Z,21.4
2017-12-13T11:28:32.302Z,21.4
2017-12-13T11:29:34.203Z,21.4
2017-12-13T11:30:35.530Z,21.5
2017-12-13T11:31:37.443Z,21.4
2017-12-13T11:32:38.777Z,21.4
2017-12-13T11:33:40.684Z,21.4
2017-12-13T11:34:42.332Z,21.4
2017-12-13T11:35:43.703Z,21.5
2017-12-13T11:36:45.066Z,21.4
2017-12-13T11:37:46.989Z,21.5
2017-12-13T11:38:48.978Z,21.4
2017-12-13T11:39:50.875Z,21.4
2017-12-13T11:40:52.222Z,21.4
2017-12-13T11:41:53.843Z,21.4
2017-12-13T11:42:54.920Z,21.4
2017-12-13T11:43:56.548Z,21.5
2017-12-13T11:44:58.165Z,21.4
2017-12-13T11:46:00.062Z,21.4
2017-12-13T11:47:01.965Z,21.4
2017-12-13T11:48:03.866Z,21.4
2017-12-13T11:49:05.769Z,21.5
2017-12-13T11:50:07.717Z,21.5
2017-12-13T11:51:09.350Z,21.4
2017-12-13T11:52:10.740Z,21.4
2017-12-13T11:53:12.364Z,21.3
2017-12-13T11:54:13.715Z,21.4
2017-12-13T11:55:15.619Z,21.5
2017-12-13T11:56:17.246Z,21.4
2017-12-13T11:57:19.146Z,21.5
2017-12-13T11:58:21.046Z,21.4
2017-12-13T11:59:22.433Z,21.5
2017-12-13T12:00:24.412Z,21.5
2017-12-13T12:01:25.476Z,21.6
2017-12-13T12:02:27.096Z,21.6
2017-12-13T12:03:29.031Z,21.6
2017-12-13T12:04:30.358Z,21.6
2017-12-13T12:05:32.311Z,21.6
2017-12-13T12:06:33.930Z,21.6
2017-12-13T12:07:35.538Z,21.6
2017-12-13T12:08:37.140Z,21.6
2017-12-13T12:09:38.741Z,21.6
2017-12-13T12:10:40.391Z,21.6
2017-12-13T12:11:41.747Z,21.6
2017-12-13T12:12:43.649Z,21.5
2017-12-13T12:13:45.252Z,21.6
2017-12-13T12:14:46.875Z,21.6
2017-12-13T12:15:48.778Z,21.7
2017-12-13T12:16:50.375Z,21.6
2017-12-13T12:17:52.277Z,21.5
2017-12-13T12:18:53.895Z,21.6
2017-12-13T12:19:55.799Z,21.6
2017-12-13T12:20:57.141Z,21.6
2017-12-13T12:21:58.796Z,21.7
2017-12-13T12:23:00.692Z,21.7
2017-12-13T12:24:01.736Z,21.6
2017-12-13T12:25:03.356Z,21.6
2017-12-13T12:26:04.958Z,21.7
2017-12-13T12:27:06.611Z,21.7
2017-12-13T12:28:08.526Z,21.6
2017-12-13T12:29:10.420Z,21.7
2017-12-13T12:30:12.048Z,21.7
2017-12-13T12:31:13.942Z,21.7
2017-12-13T12:32:15.270Z,21.6
2017-12-13T12:33:16.921Z,21.7
2017-12-13T12:34:18.238Z,21.6
2017-12-13T12:35:19.587Z,21.7
2017-12-13T12:36:20.939Z,21.6
2017-12-13T12:37:22.559Z,21.7
2017-12-13T12:38:24.455Z,21.7
2017-12-13T12:39:26.073Z,21.7
2017-12-13T12:40:27.698Z,21.7
2017-12-13T12:41:29.022Z,21.7
2017-12-13T12:42:30.914Z,21.6
2017-12-13T12:43:32.810Z,21.6
2017-12-13T12:44:34.406Z,21.6
2017-12-13T12:45:36.313Z,21.7
2017-12-13T12:46:38.208Z,21.6
2017-12-13T12:47:39.825Z,21.7
2017-12-13T12:48:41.163Z,21.7
2017-12-13T12:49:42.784Z,21.7
2017-12-13T12:50:44.689Z,21.6
2017-12-13T12:51:46.301Z,21.7
2017-12-13T12:52:47.923Z,21.7
2017-12-13T12:53:48.971Z,21.7
2017-12-13T12:54:50.593Z,21.6
2017-12-13T12:55:52.491Z,21.7
2017-12-13T12:56:54.116Z,21.6
2017-12-13T12:57:55.458Z,21.7
2017-12-13T12:58:57.357Z,21.7
2017-12-13T12:59:59.254Z,21.6
2017-12-13T13:01:01.154Z,21.7
2017-12-13T13:02:02.773Z,21.7
2017-12-13T13:03:04.395Z,21.6
2017-12-13T13:04:06.020Z,21.7
2017-12-13T13:05:07.071Z,21.7
2017-12-13T13:06:08.679Z,21.6
2017-12-13T13:07:10.580Z,21.6
2017-12-13T13:08:12.479Z,21.7
2017-12-13T13:09:14.377Z,21.7
2017-12-13T13:10:15.995Z,21.7
2017-12-13T13:11:17.600Z,21.7
2017-12-13T13:12:19.216Z,21.7
2017-12-13T13:13:20.839Z,21.7
2017-12-13T13:14:22.739Z,21.7
2017-12-13T13:15:24.362Z,21.6
2017-12-13T13:16:25.983Z,21.7
2017-12-13T13:17:27.603Z,21.7
2017-12-13T13:18:29.201Z,21.7
2017-12-13T13:19:30.826Z,21.7
2017-12-13T13:20:32.726Z,21.6
2017-12-13T13:21:34.345Z,21.7
2017-12-13T13:22:36.243Z,21.7
2017-12-13T13:23:38.146Z,21.7
2017-12-13T13:24:39.467Z,21.7
2017-12-13T13:25:41.087Z,21.7
2017-12-13T13:26:42.461Z,21.7
2017-12-13T13:27:43.795Z,21.7
2017-12-13T13:28:45.438Z,21.7
2017-12-13T13:29:46.499Z,21.7
2017-12-13T13:30:48.385Z,21.7
2017-12-13T13:31:50.005Z,21.7
2017-12-13T13:32:51.624Z,21.6
2017-12-13T13:33:53.225Z,21.7
2017-12-13T13:34:54.854Z,21.6
2017-12-13T13:35:56.475Z,21.7
2017-12-13T13:36:58.420Z,21.6
2017-12-13T13:38:00.020Z,21.7
2017-12-13T13:39:01.641Z,21.6
2017-12-13T13:40:03.266Z,21.6
2017-12-13T13:41:04.888Z,21.6
2017-12-13T13:42:06.523Z,21.6
2017-12-13T13:43:07.864Z,21.6
2017-12-13T13:44:09.482Z,21.6
2017-12-13T13:45:10.533Z,21.5
2017-12-13T13:46:11.871Z,21.5
2017-12-13T13:47:13.487Z,21.7
2017-12-13T13:48:15.085Z,21.6
2017-12-13T13:49:16.985Z,21.7
2017-12-13T13:50:18.880Z,21.6
2017-12-13T13:51:19.929Z,21.6